Box Elder, SD (57719)

4:43 AM MST on February 23, 2017 (GMT -0700)
Prairie View Estates | | Change Station
Active Advisory: Winter Storm Warning

Elev 3064 ft 44.11 °N, 103.07 °W | Updated 5 seconds ago

Overcast
Overcast
28.5 °F
Feels Like 21 °F
N
7.0
Wind Variable Wind from East
Gusts 10.0 mph

Today
High -- | Low -- °F
--% Chance of Precip.
Yesterday
High -- | Low -- °F
Precip. -- in
Pressure 29.86 in
Visibility 6.0 miles
Clouds Overcast 300 ft
Windchill 21 °F
Dew Point 26 °F
Humidity 91%
Rainfall 0.00 in
Snow Depth Not available.
6:38 AM 5:33 PM
Waning Crescent, 11% visible
SPECI KRCA 231133Z AUTO 06009KT 6SM -FZRA BR OVC003 M02/M02 A2986 RMK AO2 $
Pressure 29.86 in
Visibility 6.0 miles
Clouds Overcast 300 ft
Windchill 21 °F
Dew Point 26 °F
Humidity 91%
Rainfall 0.00 in
Snow Depth Not available.
6:38 AM 5:33 PM
Waning Crescent, 11% visible
SPECI KRCA 231133Z AUTO 06009KT 6SM -FZRA BR OVC003 M02/M02 A2986 RMK AO2 $

Get Your Daily Forecast Email!

Thanks for signing up!

Be on the lookout for a verification email in your inbox.

You'll start receiving the daily forecast at 8 AM.

×

10-Day Weather Forecast

Almanac

Astronomy

Feb. 23, 2017 Rise Set
Actual Time
Civil Twilight
Nautical Twilight
Astronomical Twilight
Moon
Length of Visible Light
Length of Day
Tomorrow will be .
, % of the Moon is Illuminated

Today's Extremes

State Highs State Lows

Community

WunderPhotos

Upload Photos

1,962,540 photos uploaded!

WunderBlog® & News

Nearby

Air Quality

  Air Quality AQ Index Pollutant
Not available.

Snow Depth

Station Depth Elevation

Earthquake Activity

City Distance Mag. Time & Date
Minimum magnitude displayed is 2.5.

Coastal Water Temperatures

Place Temperature

Stations

Nearby Weather Stations

Station Location Temp. Windchill Dew Point Humidity Wind Precip. Elev Updated Type
                   

Watches & Warnings

Winter Storm Warning
Issued: 4:21 AM MST Feb. 23, 2017 – National Weather Service

... Winter Storm Warning now in effect until 5 am MST Friday...

* snow will continue to develop this morning and continue through
this evening, tapering off late tonight.

* The heaviest snowfall will occur late this morning through early
evening.

* Total snow accumulations of 4 to 9 inches are expected, the
highest amounts generally to the south and west of Rapid City
and Interstate 90.

* Look for significant reductions in visibility at times.

* Plan on difficult driving conditions... especially during the
evening commute today.


Precautionary/preparedness actions...

A Winter Storm Warning for snow means severe winter weather
conditions are expected. If you must travel... keep an extra
flashlight... food and water in your vehicle in case of an
emergency. The latest Road conditions for the state you are
calling from can be obtained by calling 5 1 1.